createdAt,value
2022-08-28T00:01:40.372Z,7.45
2022-08-28T00:04:13.381Z,6.20
2022-08-28T00:06:40.348Z,7.10
2022-08-28T00:09:15.611Z,6.38
2022-08-28T00:11:42.674Z,6.90
2022-08-28T00:14:16.417Z,6.68
2022-08-28T00:16:43.286Z,6.65
2022-08-28T00:19:16.368Z,9.50
2022-08-28T00:21:49.385Z,6.25
2022-08-28T00:24:23.366Z,6.00
2022-08-28T00:26:56.400Z,6.03
2022-08-28T00:29:23.293Z,7.57
2022-08-28T00:31:56.386Z,8.93
2022-08-28T00:34:33.322Z,6.75
2022-08-28T00:37:07.413Z,5.72
2022-08-28T00:39:34.324Z,6.43
2022-08-28T00:42:11.674Z,7.35
2022-08-28T00:44:52.070Z,7.70
2022-08-28T00:47:31.407Z,7.85
2022-08-28T00:49:58.301Z,6.53
2022-08-28T00:52:31.422Z,6.40
2022-08-28T00:55:06.446Z,6.63
2022-08-28T00:57:52.418Z,6.55
2022-08-28T01:00:29.470Z,7.53
2022-08-28T01:03:03.508Z,6.32
2022-08-28T01:05:30.463Z,6.28
2022-08-28T01:08:04.435Z,6.72
2022-08-28T01:10:33.531Z,7.53
2022-08-28T01:13:07.429Z,5.80
2022-08-28T01:15:35.012Z,6.00
2022-08-28T01:18:12.521Z,7.43
2022-08-28T01:20:48.121Z,6.30
2022-08-28T01:23:46.414Z,6.13
2022-08-28T01:26:13.295Z,7.18
2022-08-28T01:28:47.440Z,6.40
2022-08-28T01:31:15.601Z,6.25
2022-08-28T01:33:50.445Z,5.75
2022-08-28T01:36:18.241Z,7.97
2022-08-28T01:38:56.441Z,6.70
2022-08-28T01:41:23.323Z,5.93
2022-08-28T01:43:56.441Z,7.72
2022-08-28T01:46:23.371Z,9.43
2022-08-28T01:48:56.447Z,8.60
2022-08-28T01:51:24.688Z,9.02
2022-08-28T01:53:58.450Z,9.48
2022-08-28T01:56:25.729Z,7.93
2022-08-28T01:58:59.483Z,6.65
2022-08-28T02:01:26.499Z,9.65
2022-08-28T02:03:53.430Z,8.82
2022-08-28T02:06:26.461Z,10.38
2022-08-28T02:08:53.342Z,10.98
2022-08-28T02:11:20.236Z,7.35
2022-08-28T02:13:54.332Z,7.25
2022-08-28T02:16:30.469Z,9.80
2022-08-28T02:19:03.460Z,10.70
2022-08-28T02:21:30.362Z,14.55
2022-08-28T02:24:03.495Z,9.40
2022-08-28T02:26:30.541Z,9.88
2022-08-28T02:29:04.451Z,10.90
2022-08-28T02:31:31.336Z,9.85
2022-08-28T02:34:04.476Z,9.27
2022-08-28T02:36:31.368Z,8.88
2022-08-28T02:39:04.511Z,11.02
2022-08-28T02:41:31.370Z,7.68
2022-08-28T02:44:04.475Z,8.45
2022-08-28T02:46:31.470Z,7.35
2022-08-28T02:49:04.492Z,7.65
2022-08-28T02:51:32.024Z,10.48
2022-08-28T02:53:59.214Z,8.02
2022-08-28T02:56:32.517Z,9.80
2022-08-28T02:58:59.377Z,8.15
2022-08-28T03:01:32.544Z,7.25
2022-08-28T03:04:00.189Z,9.38
2022-08-28T03:06:33.511Z,12.15
2022-08-28T03:09:00.416Z,8.40
2022-08-28T03:11:34.514Z,9.48
2022-08-28T03:14:01.385Z,9.90
2022-08-28T03:16:34.588Z,9.70
2022-08-28T03:19:08.510Z,10.38
2022-08-28T03:21:41.526Z,9.18
2022-08-28T03:24:15.741Z,9.25
2022-08-28T03:26:43.129Z,8.15
2022-08-28T03:29:16.544Z,8.23
2022-08-28T03:31:43.426Z,8.77
2022-08-28T03:34:16.511Z,9.52
2022-08-28T03:36:49.541Z,8.68
2022-08-28T03:39:16.467Z,10.38
2022-08-28T03:41:49.529Z,9.15
2022-08-28T03:44:16.421Z,12.20
2022-08-28T03:46:49.504Z,9.43
2022-08-28T03:49:16.977Z,9.88
2022-08-28T03:51:52.559Z,8.55
2022-08-28T03:54:19.467Z,9.88
2022-08-28T03:56:46.384Z,8.77
2022-08-28T03:59:19.548Z,8.73
2022-08-28T04:01:52.596Z,9.85
2022-08-28T04:04:25.584Z,8.00
2022-08-28T04:06:52.500Z,9.27
2022-08-28T04:09:25.653Z,10.15
2022-08-28T04:11:52.570Z,9.18
2022-08-28T04:14:25.594Z,9.15
2022-08-28T04:16:52.575Z,8.98
2022-08-28T04:19:25.560Z,10.45
2022-08-28T04:21:52.461Z,13.90
2022-08-28T04:24:25.567Z,9.77
2022-08-28T04:26:52.452Z,11.48
2022-08-28T04:29:25.561Z,9.85
2022-08-28T04:31:58.764Z,11.90
2022-08-28T04:34:32.572Z,9.70
2022-08-28T04:37:05.579Z,10.48
2022-08-28T04:39:33.494Z,9.55
2022-08-28T04:42:00.427Z,8.07
2022-08-28T04:44:33.562Z,11.35
2022-08-28T04:47:00.551Z,9.38
2022-08-28T04:49:35.589Z,11.48
2022-08-28T04:52:03.015Z,9.52
2022-08-28T04:54:36.589Z,11.13
2022-08-28T04:57:06.425Z,9.65
2022-08-28T04:59:39.587Z,9.60
2022-08-28T05:02:06.509Z,9.30
2022-08-28T05:04:39.569Z,8.90
2022-08-28T05:07:12.598Z,10.13
2022-08-28T05:09:39.497Z,8.45
2022-08-28T05:12:12.554Z,9.63
2022-08-28T05:14:39.437Z,10.93
2022-08-28T05:17:06.407Z,8.45
2022-08-28T05:19:39.609Z,9.27
2022-08-28T05:22:12.584Z,9.55
2022-08-28T05:24:39.810Z,8.80
2022-08-28T05:27:07.374Z,10.00
2022-08-28T05:29:40.592Z,10.02
2022-08-28T05:32:07.532Z,8.70
2022-08-28T05:34:40.692Z,9.15
2022-08-28T05:37:07.582Z,8.98
2022-08-28T05:39:40.594Z,8.73
2022-08-28T05:42:07.589Z,10.52
2022-08-28T05:44:41.596Z,13.07
2022-08-28T05:47:08.504Z,7.85
2022-08-28T05:49:41.623Z,7.57
2022-08-28T05:52:14.637Z,8.95
2022-08-28T05:54:42.956Z,8.63
2022-08-28T05:57:16.603Z,7.57
2022-08-28T05:59:43.489Z,7.53
2022-08-28T06:02:16.675Z,7.85
2022-08-28T06:04:43.582Z,7.57
2022-08-28T06:07:16.635Z,9.52
2022-08-28T06:09:43.584Z,5.40
2022-08-28T06:12:17.652Z,6.05
2022-08-28T06:14:45.004Z,6.07
2022-08-28T06:17:11.984Z,8.13
2022-08-28T06:19:45.654Z,6.13
2022-08-28T06:22:12.560Z,6.07
2022-08-28T06:24:46.670Z,6.35
2022-08-28T06:27:13.580Z,6.05
2022-08-28T06:29:46.629Z,11.25
2022-08-28T06:32:19.707Z,5.45
2022-08-28T06:34:53.649Z,5.63
2022-08-28T06:37:20.529Z,5.25
2022-08-28T06:40:00.706Z,7.22
2022-08-28T06:42:27.643Z,5.60
2022-08-28T06:45:00.699Z,5.47
2022-08-28T06:47:27.595Z,4.82
2022-08-28T06:50:00.722Z,5.25
2022-08-28T06:52:27.637Z,5.40
2022-08-28T06:54:55.573Z,7.00
2022-08-28T06:57:29.732Z,5.25
2022-08-28T06:59:57.780Z,4.68
2022-08-28T07:02:31.710Z,6.25
2022-08-28T07:04:58.661Z,5.47
2022-08-28T07:07:32.489Z,7.22
2022-08-28T07:10:06.686Z,6.00
2022-08-28T07:12:39.702Z,6.75
2022-08-28T07:15:07.947Z,7.03
2022-08-28T07:17:41.704Z,4.80
2022-08-28T07:20:09.395Z,7.53
2022-08-28T07:22:36.317Z,4.43
2022-08-28T07:25:10.682Z,5.00
2022-08-28T07:27:38.192Z,4.90
2022-08-28T07:30:13.732Z,4.55
2022-08-28T07:32:40.761Z,4.13
2022-08-28T07:35:08.404Z,4.50
2022-08-28T07:37:41.722Z,4.63
2022-08-28T07:40:09.951Z,3.90
2022-08-28T07:42:44.759Z,4.40
2022-08-28T07:45:17.714Z,5.18
2022-08-28T07:47:44.659Z,3.80
2022-08-28T07:50:17.749Z,3.85
2022-08-28T07:52:44.742Z,3.97
2022-08-28T07:55:17.759Z,4.00
2022-08-28T07:57:51.729Z,4.68
2022-08-28T08:00:26.748Z,3.95
2022-08-28T08:02:53.739Z,4.18
2022-08-28T08:05:26.746Z,4.50
2022-08-28T08:07:59.711Z,3.40
2022-08-28T08:10:26.744Z,4.18
2022-08-28T08:13:07.726Z,4.53
2022-08-28T08:15:41.786Z,4.13
2022-08-28T08:18:14.880Z,4.50
2022-08-28T08:20:48.760Z,3.97
2022-08-28T08:23:15.676Z,3.45
2022-08-28T08:25:48.749Z,3.10
2022-08-28T08:28:15.634Z,3.53
2022-08-28T08:30:48.822Z,2.92
2022-08-28T08:33:15.734Z,3.17
2022-08-28T08:35:48.754Z,2.60
2022-08-28T08:38:15.790Z,3.25
2022-08-28T08:40:49.774Z,3.13
2022-08-28T08:43:16.822Z,3.13
2022-08-28T08:45:51.764Z,2.80
2022-08-28T08:48:30.004Z,2.78
2022-08-28T08:51:10.767Z,2.72
2022-08-28T08:54:04.179Z,3.08
2022-08-28T08:56:37.780Z,2.70
2022-08-28T08:59:10.742Z,3.00
2022-08-28T09:01:50.846Z,2.50
2022-08-28T09:04:52.654Z,2.88
2022-08-28T09:07:48.258Z,2.45
2022-08-28T09:10:18.509Z,2.83
2022-08-28T09:13:16.839Z,2.80
2022-08-28T09:15:47.574Z,3.08
2022-08-28T09:18:39.797Z,3.13
2022-08-28T09:21:06.834Z,2.75
2022-08-28T09:23:39.809Z,2.70
2022-08-28T09:26:06.880Z,2.50
2022-08-28T09:28:43.842Z,2.72
2022-08-28T09:31:15.747Z,2.80
2022-08-28T09:33:55.837Z,3.10
2022-08-28T09:36:30.516Z,4.13
2022-08-28T09:39:27.816Z,3.50
2022-08-28T09:42:20.800Z,2.78
2022-08-28T09:45:10.919Z,3.00
2022-08-28T09:48:03.832Z,3.20
2022-08-28T09:50:41.059Z,3.40
2022-08-28T09:53:17.837Z,2.75
2022-08-28T09:56:11.798Z,3.38
2022-08-28T09:58:47.221Z,2.95
2022-08-28T10:01:48.865Z,3.58
2022-08-28T10:04:15.808Z,3.55
2022-08-28T10:07:10.857Z,3.33
2022-08-28T10:09:56.274Z,4.70
2022-08-28T10:13:10.857Z,4.55
2022-08-28T10:16:08.967Z,3.40
2022-08-28T10:18:47.839Z,3.67
2022-08-28T10:21:26.886Z,2.90
2022-08-28T10:24:15.822Z,3.42
2022-08-28T10:27:40.832Z,3.35
2022-08-28T10:30:23.507Z,3.90
2022-08-28T10:33:50.856Z,4.20
2022-08-28T10:36:32.914Z,2.97
2022-08-28T10:40:04.563Z,3.35
2022-08-28T10:43:02.640Z,4.25
2022-08-28T10:45:35.867Z,3.47
2022-08-28T10:48:18.224Z,3.50
2022-08-28T10:51:02.864Z,4.22
2022-08-28T10:53:44.922Z,3.20
2022-08-28T10:56:27.874Z,2.85
2022-08-28T10:58:58.359Z,3.13
2022-08-28T11:01:36.950Z,3.30
2022-08-28T11:04:25.886Z,2.50
2022-08-28T11:07:09.207Z,4.63
2022-08-28T11:09:54.890Z,3.65
2022-08-28T11:12:27.894Z,3.58
2022-08-28T11:15:01.913Z,3.65
2022-08-28T11:17:28.794Z,3.42
2022-08-28T11:20:22.895Z,3.53
2022-08-28T11:23:09.535Z,3.42
2022-08-28T11:25:57.882Z,2.90
2022-08-28T11:28:25.857Z,4.13
2022-08-28T11:31:04.981Z,5.00
2022-08-28T11:33:43.866Z,3.75
2022-08-28T11:36:39.942Z,5.60
2022-08-28T11:39:19.331Z,4.10
2022-08-28T11:42:17.892Z,3.65
2022-08-28T11:44:45.519Z,3.90
2022-08-28T11:47:42.926Z,3.65
2022-08-28T11:50:29.914Z,4.00
2022-08-28T11:53:38.927Z,3.90
2022-08-28T11:56:31.870Z,4.63
2022-08-28T11:59:35.466Z,4.53
2022-08-28T12:02:39.329Z,3.78
2022-08-28T12:05:15.971Z,4.82
2022-08-28T12:07:54.915Z,3.80
2022-08-28T12:10:27.416Z,3.72
2022-08-28T12:13:15.050Z,4.55
2022-08-28T12:15:42.534Z,4.13
2022-08-28T12:18:18.968Z,3.95
2022-08-28T12:21:07.082Z,3.80
2022-08-28T12:24:09.123Z,3.78
2022-08-28T12:26:38.714Z,4.53
2022-08-28T12:29:33.941Z,5.30
2022-08-28T12:32:28.050Z,5.53
2022-08-28T12:35:04.962Z,5.45
2022-08-28T12:37:52.799Z,5.57
2022-08-28T12:40:51.932Z,4.10
2022-08-28T12:43:33.531Z,4.47
2022-08-28T12:46:19.673Z,4.05
2022-08-28T12:48:55.939Z,5.15
2022-08-28T12:51:40.942Z,4.32
2022-08-28T12:54:08.372Z,4.38
2022-08-28T12:56:43.970Z,3.88
2022-08-28T12:59:48.974Z,4.15
2022-08-28T13:02:34.346Z,4.10
2022-08-28T13:05:27.959Z,4.15
2022-08-28T13:07:54.890Z,4.68
2022-08-28T13:10:42.005Z,3.67
2022-08-28T13:13:19.994Z,3.90
2022-08-28T13:16:05.974Z,3.70
2022-08-28T13:19:09.757Z,4.10
2022-08-28T13:21:55.982Z,3.45
2022-08-28T13:24:23.985Z,4.15
2022-08-28T13:27:10.003Z,3.58
2022-08-28T13:29:36.952Z,3.25
2022-08-28T13:32:15.977Z,4.05
2022-08-28T13:34:48.987Z,5.05
2022-08-28T13:37:46.134Z,3.90
2022-08-28T13:40:53.287Z,4.60
2022-08-28T13:43:11.396Z,3.50
2022-08-28T13:45:48.048Z,3.38
2022-08-28T13:48:36.027Z,3.50
2022-08-28T13:51:10.559Z,3.92
2022-08-28T13:53:45.016Z,3.95
2022-08-28T13:56:11.944Z,3.50
2022-08-28T13:58:45.001Z,3.30
2022-08-28T14:01:30.584Z,3.28
2022-08-28T14:04:09.041Z,3.67
2022-08-28T14:06:35.962Z,3.88
2022-08-28T14:09:09.033Z,3.50
2022-08-28T14:11:36.001Z,3.67
2022-08-28T14:17:04.214Z,4.00
2022-08-28T14:19:38.541Z,3.40
2022-08-28T14:22:05.499Z,4.00
2022-08-28T14:24:32.454Z,3.47
2022-08-28T14:27:06.509Z,3.95
2022-08-28T14:29:33.485Z,3.67
2022-08-28T14:32:00.517Z,4.00
2022-08-28T14:34:34.469Z,3.30
2022-08-28T14:37:07.550Z,3.38
2022-08-28T14:39:34.489Z,3.38
2022-08-28T14:42:11.584Z,3.38
2022-08-28T14:44:40.291Z,3.40
2022-08-28T14:47:13.508Z,3.35
2022-08-28T14:49:40.459Z,3.92
2022-08-28T14:52:13.490Z,3.40
2022-08-28T14:54:40.439Z,3.50
2022-08-28T14:57:13.476Z,3.65
2022-08-28T14:59:40.405Z,3.58
2022-08-28T15:02:13.524Z,3.65
2022-08-28T15:04:48.747Z,3.78
2022-08-28T15:07:22.476Z,3.30
2022-08-28T15:09:49.370Z,3.75
2022-08-28T15:12:22.510Z,3.67
2022-08-28T15:14:57.411Z,2.90
2022-08-28T15:17:33.554Z,3.30
2022-08-28T15:20:08.524Z,5.13
2022-08-28T15:22:35.425Z,2.90
2022-08-28T15:25:08.501Z,3.13
2022-08-28T15:27:35.372Z,3.08
2022-08-28T15:30:02.332Z,3.13
2022-08-28T15:32:35.605Z,3.58
2022-08-28T15:35:02.506Z,3.25
2022-08-28T15:37:29.424Z,3.40
2022-08-28T15:40:05.546Z,3.10
2022-08-28T15:42:32.471Z,3.15
2022-08-28T15:45:05.502Z,3.60
2022-08-28T15:47:38.520Z,3.53
2022-08-28T15:50:12.521Z,3.35
2022-08-28T15:52:39.461Z,3.10
2022-08-28T15:55:13.530Z,3.20
2022-08-28T15:57:40.429Z,3.63
2022-08-28T16:00:10.378Z,3.58
2022-08-28T16:02:44.501Z,3.22
2022-08-28T16:05:11.561Z,3.08
2022-08-28T16:07:38.424Z,3.10
2022-08-28T16:10:13.551Z,4.78
2022-08-28T16:12:47.873Z,3.50
2022-08-28T16:15:21.116Z,3.50
2022-08-28T16:17:54.575Z,3.58
2022-08-28T16:20:21.495Z,3.00
2022-08-28T16:22:54.535Z,3.35
2022-08-28T16:25:21.409Z,3.25
2022-08-28T16:27:54.537Z,3.38
2022-08-28T16:30:21.495Z,2.88
2022-08-28T16:32:58.549Z,3.08
2022-08-28T16:35:25.860Z,3.15
2022-08-28T16:37:59.575Z,2.92
2022-08-28T16:40:26.497Z,3.20
2022-08-28T16:42:55.710Z,3.28
2022-08-28T16:45:29.552Z,3.05
2022-08-28T16:48:02.555Z,3.35
2022-08-28T16:50:36.562Z,2.85
2022-08-28T16:53:09.574Z,3.90
2022-08-28T16:55:36.860Z,4.03
2022-08-28T16:58:13.806Z,3.17
2022-08-28T17:00:52.433Z,3.00
2022-08-28T17:03:27.596Z,3.83
2022-08-28T17:06:02.577Z,3.10
2022-08-28T17:08:35.618Z,3.42
2022-08-28T17:11:08.587Z,3.90
2022-08-28T17:13:35.698Z,4.85
2022-08-28T17:16:03.072Z,3.17
2022-08-28T17:18:36.585Z,3.70
2022-08-28T17:21:04.214Z,4.28
2022-08-28T17:23:31.160Z,3.72
2022-08-28T17:26:04.595Z,3.42
2022-08-28T17:28:39.642Z,3.25
2022-08-28T17:31:06.589Z,3.40
2022-08-28T17:33:42.592Z,3.58
2022-08-28T17:36:30.749Z,3.85
2022-08-28T17:39:06.620Z,3.40
2022-08-28T17:41:33.600Z,3.45
2022-08-28T17:44:07.599Z,3.78
2022-08-28T17:46:37.814Z,3.97
2022-08-28T17:49:06.369Z,3.40
2022-08-28T17:51:43.381Z,4.00
2022-08-28T17:54:16.650Z,4.30
2022-08-28T17:56:50.611Z,3.92
2022-08-28T17:59:24.620Z,3.85
2022-08-28T18:01:51.816Z,4.55
2022-08-28T18:04:23.826Z,4.30
2022-08-28T18:06:58.607Z,3.83
2022-08-28T18:09:25.517Z,4.13
2022-08-28T18:11:58.622Z,3.60
2022-08-28T18:14:25.509Z,4.43
2022-08-28T18:16:58.629Z,3.92
2022-08-28T18:19:25.534Z,3.90
2022-08-28T18:21:52.451Z,4.30
2022-08-28T18:24:25.643Z,3.92
2022-08-28T18:27:00.650Z,4.10
2022-08-28T18:29:34.656Z,4.00
2022-08-28T18:32:07.615Z,4.75
2022-08-28T18:34:41.665Z,3.83
2022-08-28T18:37:14.665Z,4.00
2022-08-28T18:39:42.267Z,3.92
2022-08-28T18:42:17.650Z,4.55
2022-08-28T18:44:44.514Z,5.22
2022-08-28T18:47:17.674Z,4.22
2022-08-28T18:49:44.529Z,4.18
2022-08-28T18:52:17.665Z,4.28
2022-08-28T18:54:50.675Z,5.97
2022-08-28T18:57:18.306Z,3.70
2022-08-28T18:59:52.696Z,3.97
2022-08-28T19:02:19.681Z,4.10
2022-08-28T19:04:46.645Z,3.88
2022-08-28T19:07:20.675Z,4.15
2022-08-28T19:09:47.564Z,5.00
2022-08-28T19:12:20.662Z,4.32
2022-08-28T19:14:47.547Z,4.40
2022-08-28T19:17:21.257Z,4.75
2022-08-28T19:19:48.649Z,4.70
2022-08-28T19:22:21.726Z,4.82
2022-08-28T19:24:48.960Z,4.05
2022-08-28T19:27:15.857Z,4.55
2022-08-28T19:29:49.707Z,5.10
2022-08-28T19:32:16.578Z,4.35
2022-08-28T19:34:43.475Z,4.40
2022-08-28T19:37:16.718Z,4.38
2022-08-28T19:39:44.529Z,4.50
2022-08-28T19:42:29.698Z,4.80
2022-08-28T19:44:59.632Z,5.43
2022-08-28T19:47:35.339Z,5.28
2022-08-28T19:50:03.418Z,5.72
2022-08-28T19:52:36.727Z,4.80
2022-08-28T19:55:04.952Z,4.88
2022-08-28T19:57:32.035Z,4.40
2022-08-28T20:00:05.710Z,4.85
2022-08-28T20:02:32.690Z,4.50
2022-08-28T20:05:05.731Z,5.07
2022-08-28T20:07:32.676Z,4.28
2022-08-28T20:10:05.725Z,5.32
2022-08-28T20:12:32.881Z,4.65
2022-08-28T20:15:16.042Z,4.88
2022-08-28T20:17:43.912Z,4.50
2022-08-28T20:20:29.763Z,4.88
2022-08-28T20:22:56.955Z,5.43
2022-08-28T20:25:30.737Z,5.25
2022-08-28T20:28:03.743Z,6.68
2022-08-28T20:30:30.803Z,5.47
2022-08-28T20:33:04.750Z,8.52
2022-08-28T20:35:38.768Z,5.38
2022-08-28T20:38:05.714Z,5.75
2022-08-28T20:40:38.818Z,7.65
2022-08-28T20:43:05.728Z,4.75
2022-08-28T20:45:38.769Z,6.57
2022-08-28T20:48:05.696Z,4.70
2022-08-28T20:50:32.585Z,5.00
2022-08-28T20:53:05.757Z,5.93
2022-08-28T20:55:32.717Z,5.13
2022-08-28T20:58:05.786Z,4.85
2022-08-28T21:00:32.722Z,5.32
2022-08-28T21:02:59.696Z,5.35
2022-08-28T21:05:32.849Z,5.85
2022-08-28T21:07:59.770Z,4.95
2022-08-28T21:10:32.788Z,5.15
2022-08-28T21:12:59.712Z,6.10
2022-08-28T21:15:26.673Z,5.28
2022-08-28T21:17:59.790Z,5.38
2022-08-28T21:20:26.925Z,5.40
2022-08-28T21:22:54.862Z,6.53
2022-08-28T21:25:28.956Z,5.55
2022-08-28T21:28:04.066Z,4.47
2022-08-28T21:30:31.525Z,5.90
2022-08-28T21:33:04.835Z,5.65
2022-08-28T21:35:38.828Z,5.22
2022-08-28T21:38:05.874Z,5.13
2022-08-28T21:40:39.946Z,4.90
2022-08-28T21:43:07.291Z,4.90
2022-08-28T21:45:40.858Z,7.47
2022-08-28T21:48:07.958Z,5.28
2022-08-28T21:50:35.074Z,5.45
2022-08-28T21:53:08.879Z,5.90
2022-08-28T21:55:35.964Z,6.25
2022-08-28T21:58:09.912Z,5.60
2022-08-28T22:00:45.823Z,7.25
2022-08-28T22:03:12.817Z,5.88
2022-08-28T22:05:52.879Z,5.82
2022-08-28T22:08:20.957Z,6.55
2022-08-28T22:10:48.551Z,5.95
2022-08-28T22:13:22.809Z,6.45
2022-08-28T22:15:49.824Z,6.28
2022-08-28T22:18:24.156Z,5.85
2022-08-28T22:21:01.531Z,8.32
2022-08-28T22:23:35.931Z,6.00
2022-08-28T22:26:09.033Z,5.95
2022-08-28T22:28:42.861Z,5.70
2022-08-28T22:31:10.040Z,7.43
2022-08-28T22:33:43.870Z,5.18
2022-08-28T22:36:17.901Z,6.13
2022-08-28T22:38:47.017Z,5.68
2022-08-28T22:41:26.954Z,5.45
2022-08-28T22:44:00.864Z,6.55
2022-08-28T22:46:34.869Z,5.65
2022-08-28T22:49:08.917Z,5.70
2022-08-28T22:51:42.859Z,6.20
2022-08-28T22:54:09.760Z,6.07
2022-08-28T22:56:42.836Z,5.30
2022-08-28T22:59:09.799Z,5.57
2022-08-28T23:01:42.875Z,6.28
2022-08-28T23:04:10.655Z,5.88
2022-08-28T23:06:43.882Z,5.60
2022-08-28T23:09:10.801Z,4.85
2022-08-28T23:11:43.852Z,5.32
2022-08-28T23:14:16.867Z,5.55
2022-08-28T23:16:49.887Z,5.05
2022-08-28T23:19:23.856Z,4.40
2022-08-28T23:21:56.864Z,4.47
2022-08-28T23:24:23.787Z,5.85
2022-08-28T23:26:50.699Z,4.65
2022-08-28T23:29:23.864Z,4.40
2022-08-28T23:31:57.895Z,5.07
2022-08-28T23:34:25.153Z,5.38
2022-08-28T23:36:58.851Z,4.50
2022-08-28T23:39:32.884Z,4.25
2022-08-28T23:42:06.871Z,5.15
2022-08-28T23:44:40.844Z,4.63
2022-08-28T23:47:14.891Z,5.03
2022-08-28T23:49:42.803Z,5.47
2022-08-28T23:52:10.006Z,4.50
2022-08-28T23:54:43.889Z,4.88
2022-08-28T23:57:11.634Z,4.88
2022-08-28T23:59:38.502Z,4.68
